Time;durP1;ratioP1;P1;durP2;ratioP2;P2;SDS_P1;SDS_P2;PMS_P1;PMS_P2;Temp;Humidity;BMP_temperature;BMP_pressure;BME280_temperature;BME280_humidity;BME280_pressure;Samples;Min_cycle;Max_cycle;Signal;HPM_P1;HPM_P2
2023/06/21 00:01:03;;;;;;;10.40;6.90;;;25.30;84.20;;;;;;7378515;19;20011;-72
2023/06/21 00:03:32;;;;;;;14.10;7.18;;;25.30;84.20;;;;;;7381533;19;20003;-72
2023/06/21 00:06:00;;;;;;;14.45;6.88;;;25.30;84.10;;;;;;7400351;19;20062;-72
2023/06/21 00:08:29;;;;;;;16.20;6.53;;;25.20;84.20;;;;;;7377918;19;20336;-72
2023/06/21 00:10:58;;;;;;;8.80;6.10;;;25.20;84.40;;;;;;7378198;19;20048;-71
2023/06/21 00:13:29;;;;;;;14.52;6.38;;;25.20;84.60;;;;;;7379968;19;20035;-72
2023/06/21 00:15:58;;;;;;;10.18;6.07;;;25.10;84.50;;;;;;7378860;19;20461;-72
2023/06/21 00:18:26;;;;;;;9.90;6.03;;;25.10;84.50;;;;;;7378897;19;20071;-72
2023/06/21 00:20:59;;;;;;;10.50;5.90;;;25.10;84.70;;;;;;7404441;19;20070;-73
2023/06/21 00:23:28;;;;;;;12.13;5.70;;;25.10;84.40;;;;;;7377459;19;20030;-72
2023/06/21 00:25:57;;;;;;;9.90;5.57;;;25.10;84.40;;;;;;7378080;19;20014;-72
2023/06/21 00:28:31;;;;;;;12.15;6.13;;;25.10;84.20;;;;;;7377091;19;20002;-72
2023/06/21 00:30:59;;;;;;;13.10;5.65;;;25.10;84.40;;;;;;7378084;19;20401;-72
2023/06/21 00:33:28;;;;;;;8.45;5.40;;;25.00;84.30;;;;;;7375830;19;20005;-72
2023/06/21 00:35:57;;;;;;;12.80;5.25;;;25.00;84.30;;;;;;7398237;19;20019;-72
2023/06/21 00:38:25;;;;;;;7.30;4.60;;;24.90;84.40;;;;;;7376885;19;20308;-73
2023/06/21 00:40:54;;;;;;;9.60;5.10;;;24.90;84.40;;;;;;7377990;19;20074;-72
2023/06/21 00:43:23;;;;;;;8.52;5.03;;;24.90;84.50;;;;;;7377968;19;20076;-73
2023/06/21 00:45:54;;;;;;;7.63;4.68;;;24.80;84.40;;;;;;7378006;19;20007;-73
2023/06/21 00:48:23;;;;;;;8.48;4.68;;;24.80;84.30;;;;;;7388839;19;20017;-73
2023/06/21 00:50:52;;;;;;;8.52;5.00;;;24.80;84.20;;;;;;7398467;19;20359;-72
2023/06/21 00:53:21;;;;;;;9.00;4.60;;;24.70;84.30;;;;;;7377350;19;20308;-72
2023/06/21 00:55:50;;;;;;;7.63;5.07;;;24.70;84.20;;;;;;7377130;19;20013;-72
2023/06/21 00:58:20;;;;;;;10.40;4.40;;;24.70;84.10;;;;;;7376880;19;20340;-73
2023/06/21 01:00:50;;;;;;;8.40;4.32;;;24.70;84.10;;;;;;7377259;19;20006;-72
2023/06/21 01:03:22;;;;;;;13.38;4.63;;;24.70;84.20;;;;;;7398427;19;20518;-72
2023/06/21 01:06:12;;;;;;;9.63;4.50;;;24.70;84.40;;;;;;7376610;19;20397;-72
2023/06/21 01:08:50;;;;;;;8.90;4.18;;;24.70;84.20;;;;;;7376343;19;20003;-72
2023/06/21 01:11:26;;;;;;;6.97;4.50;;;24.70;84.20;;;;;;7379034;19;20007;-73
2023/06/21 01:14:08;;;;;;;9.73;5.00;;;24.70;83.80;;;;;;7375712;19;20010;-72
2023/06/21 01:16:41;;;;;;;12.13;4.68;;;24.70;83.80;;;;;;7377273;19;20058;-73
2023/06/21 01:19:31;;;;;;;14.45;4.97;;;24.60;84.10;;;;;;7374600;19;20006;-72
2023/06/21 01:22:02;;;;;;;11.82;4.93;;;24.60;84.40;;;;;;7376839;19;20009;-72
2023/06/21 01:24:38;;;;;;;;;;;24.60;84.50;;;;;;7382750;19;20066;-73
2023/06/21 01:27:35;;;;;;;10.48;4.50;;;24.60;84.70;;;;;;7405317;19;19911;-73
2023/06/21 01:30:09;;;;;;;7.88;4.32;;;24.50;84.40;;;;;;7383129;19;20011;-73
2023/06/21 01:32:40;;;;;;;13.05;5.22;;;24.50;84.50;;;;;;7382667;19;20327;-74
2023/06/21 01:35:11;;;;;;;8.20;4.50;;;24.50;84.40;;;;;;7383263;19;20398;-74
2023/06/21 01:37:43;;;;;;;8.40;4.00;;;24.50;84.40;;;;;;7385590;19;20235;-73
2023/06/21 01:40:12;;;;;;;7.43;3.97;;;24.50;83.90;;;;;;7382450;19;20011;-73
2023/06/21 01:42:41;;;;;;;9.85;4.60;;;24.50;83.90;;;;;;7381222;19;20027;-73
2023/06/21 01:45:13;;;;;;;9.00;4.50;;;24.50;84.10;;;;;;7406637;19;20419;-74
2023/06/21 01:47:44;;;;;;;9.23;4.55;;;24.40;84.30;;;;;;7382287;19;20027;-72
2023/06/21 01:50:14;;;;;;;;;;;24.30;84.70;;;;;;7382572;19;20083;-73
2023/06/21 01:52:43;;;;;;;7.47;4.88;;;24.30;85.10;;;;;;7383157;19;19962;-73
2023/06/21 01:55:12;;;;;;;11.02;4.45;;;24.30;85.10;;;;;;7382300;19;20011;-72
2023/06/21 01:57:41;;;;;;;8.88;4.65;;;24.20;85.00;;;;;;7381456;19;20007;-73
2023/06/21 02:00:16;;;;;;;9.25;4.10;;;24.30;85.10;;;;;;7402633;19;20035;-73
2023/06/21 02:02:48;;;;;;;12.55;5.20;;;24.30;85.20;;;;;;7385862;19;20015;-73
2023/06/21 02:05:18;;;;;;;13.52;5.10;;;24.30;84.80;;;;;;7384198;19;20070;-73
2023/06/21 02:07:48;;;;;;;7.55;4.43;;;24.30;84.90;;;;;;7382539;19;20056;-75
2023/06/21 02:10:18;;;;;;;8.95;5.05;;;24.30;85.20;;;;;;7382609;19;20015;-73
2023/06/21 02:12:52;;;;;;;13.27;5.38;;;24.30;84.70;;;;;;7380158;19;20019;-73
2023/06/21 02:15:23;;;;;;;11.85;5.15;;;24.20;84.90;;;;;;7404049;19;20027;-74
2023/06/21 02:17:53;;;;;;;14.27;5.20;;;24.10;85.20;;;;;;7381360;19;20576;-74
2023/06/21 02:20:23;;;;;;;8.50;4.30;;;24.10;85.60;;;;;;7380038;19;20003;-72
2023/06/21 02:22:52;;;;;;;6.72;4.07;;;24.10;85.90;;;;;;7383514;19;20019;-73
2023/06/21 02:25:21;;;;;;;9.32;4.68;;;24.10;85.90;;;;;;7380590;19;20394;-73
2023/06/21 02:27:52;;;;;;;9.68;4.13;;;24.10;85.90;;;;;;7382160;19;19999;-72
2023/06/21 02:30:24;;;;;;;6.47;3.72;;;24.00;85.80;;;;;;7401796;19;20024;-72
2023/06/21 02:32:53;;;;;;;14.65;3.80;;;24.00;85.90;;;;;;7381422;19;20006;-72
2023/06/21 02:35:22;;;;;;;9.60;4.28;;;24.00;85.90;;;;;;7382235;19;20075;-72
2023/06/21 02:37:51;;;;;;;10.85;4.18;;;23.90;86.00;;;;;;7382480;19;20003;-72
2023/06/21 02:40:20;;;;;;;10.35;4.20;;;23.90;86.20;;;;;;7381855;19;20031;-72
2023/06/21 02:42:48;;;;;;;10.43;4.00;;;23.90;86.20;;;;;;7383914;19;20002;-72
2023/06/21 02:45:17;;;;;;;6.82;4.13;;;24.00;86.20;;;;;;7402747;19;20003;-72
2023/06/21 02:47:48;;;;;;;7.75;4.13;;;24.00;85.80;;;;;;7380537;19;20058;-72
2023/06/21 02:50:18;;;;;;;;;;;24.00;85.80;;;;;;7381566;19;19999;-72
2023/06/21 02:52:47;;;;;;;12.75;3.70;;;24.00;85.90;;;;;;7382798;19;19922;-72
2023/06/21 02:55:16;;;;;;;9.27;4.13;;;24.00;85.70;;;;;;7380081;19;20063;-72
2023/06/21 02:57:44;;;;;;;14.10;4.57;;;24.00;85.60;;;;;;7379545;19;20015;-72
2023/06/21 03:00:23;;;;;;;10.50;4.15;;;24.00;85.70;;;;;;7401519;19;20058;-72
2023/06/21 03:02:59;;;;;;;8.48;3.88;;;24.00;85.80;;;;;;7386186;19;19999;-72
2023/06/21 03:05:28;;;;;;;6.03;3.85;;;23.90;85.80;;;;;;7383934;19;20039;-72
2023/06/21 03:08:00;;;;;;;9.07;4.43;;;24.00;85.90;;;;;;7382338;19;20066;-72
2023/06/21 03:10:29;;;;;;;7.95;3.83;;;24.00;85.70;;;;;;7382390;19;20410;-72
2023/06/21 03:12:58;;;;;;;11.40;3.83;;;24.00;85.50;;;;;;7380821;19;20030;-72
2023/06/21 03:15:27;;;;;;;13.40;4.10;;;24.00;85.50;;;;;;7379141;19;20070;-72
2023/06/21 03:17:58;;;;;;;8.50;3.65;;;24.00;85.40;;;;;;7401950;19;20032;-72
2023/06/21 03:20:27;;;;;;;;;;;23.90;85.30;;;;;;7379970;19;20429;-72
2023/06/21 03:22:55;;;;;;;7.50;3.85;;;23.90;85.50;;;;;;7380757;19;20541;-72
2023/06/21 03:25:26;;;;;;;7.85;4.25;;;23.90;85.60;;;;;;7380174;19;20003;-72
2023/06/21 03:27:59;;;;;;;6.53;3.63;;;23.90;85.60;;;;;;7383531;19;20370;-72
2023/06/21 03:30:27;;;;;;;7.97;2.95;;;23.90;85.60;;;;;;7379435;19;20035;-72
2023/06/21 03:32:59;;;;;;;5.10;3.55;;;23.90;85.80;;;;;;7401629;19;20055;-72
2023/06/21 03:35:29;;;;;;;;;;;23.90;85.70;;;;;;7382309;19;20007;-72
2023/06/21 03:37:57;;;;;;;12.02;3.85;;;23.90;85.30;;;;;;7380875;19;19918;-72
2023/06/21 03:40:26;;;;;;;6.78;3.50;;;23.80;85.00;;;;;;7380094;19;20058;-73
2023/06/21 03:42:55;;;;;;;7.93;3.90;;;23.80;85.20;;;;;;7380495;19;20019;-73
2023/06/21 03:45:24;;;;;;;13.65;4.53;;;23.80;85.30;;;;;;7380519;19;20031;-72
2023/06/21 03:47:52;;;;;;;8.70;4.18;;;23.70;85.50;;;;;;7398799;19;20002;-72
2023/06/21 03:50:24;;;;;;;11.40;4.13;;;23.70;85.60;;;;;;7378891;19;20017;-72
2023/06/21 03:52:52;;;;;;;;;;;23.70;85.90;;;;;;7379787;19;20011;-72
2023/06/21 03:55:21;;;;;;;8.95;3.70;;;23.70;86.10;;;;;;7378447;19;19907;-72
2023/06/21 03:57:49;;;;;;;8.70;4.10;;;23.70;86.20;;;;;;7378981;19;20233;-73
2023/06/21 04:00:19;;;;;;;8.02;3.72;;;23.70;86.00;;;;;;7400502;19;20161;-72
2023/06/21 04:02:47;;;;;;;8.60;3.92;;;23.70;86.00;;;;;;7378420;19;20010;-72
2023/06/21 04:05:16;;;;;;;10.02;4.05;;;23.70;85.60;;;;;;7379032;19;20016;-73
2023/06/21 04:07:49;;;;;;;6.78;3.70;;;23.70;85.50;;;;;;7378581;19;20007;-72
2023/06/21 04:10:17;;;;;;;8.48;4.32;;;23.70;85.80;;;;;;7378660;19;20006;-72
2023/06/21 04:12:46;;;;;;;8.02;4.15;;;23.60;85.60;;;;;;7378414;19;20074;-72
2023/06/21 04:15:16;;;;;;;13.18;4.40;;;23.60;85.90;;;;;;7401163;19;20015;-72
2023/06/21 04:17:44;;;;;;;13.77;4.57;;;23.60;85.90;;;;;;7379232;19;20027;-73
2023/06/21 04:20:15;;;;;;;13.73;4.65;;;23.60;85.90;;;;;;7377568;19;20025;-72
2023/06/21 04:22:47;;;;;;;12.15;4.13;;;23.60;86.10;;;;;;7378351;19;20020;-72
2023/06/21 04:25:16;;;;;;;8.25;4.10;;;23.60;86.20;;;;;;7378587;19;20007;-72
2023/06/21 04:27:46;;;;;;;11.75;4.40;;;23.60;86.30;;;;;;7377729;19;20361;-72
2023/06/21 04:30:16;;;;;;;7.05;4.07;;;23.60;86.30;;;;;;7397520;19;20007;-72
2023/06/21 04:32:47;;;;;;;13.70;4.20;;;23.60;86.30;;;;;;7377165;19;20006;-72
2023/06/21 04:35:16;;;;;;;;;;;23.60;86.10;;;;;;7381082;19;20007;-72
2023/06/21 04:37:49;;;;;;;8.45;4.03;;;23.60;86.10;;;;;;7377734;19;19914;-72
2023/06/21 04:40:19;;;;;;;8.80;3.88;;;23.60;85.90;;;;;;7376864;19;20126;-72
2023/06/21 04:42:54;;;;;;;11.48;4.07;;;23.60;85.90;;;;;;7377382;19;20073;-72
2023/06/21 04:45:23;;;;;;;16.60;4.80;;;23.60;85.90;;;;;;7383613;19;20007;-73
2023/06/21 04:47:52;;;;;;;8.27;4.30;;;23.60;85.80;;;;;;7402413;19;20003;-72
2023/06/21 04:50:22;;;;;;;8.25;4.10;;;23.60;86.10;;;;;;7377607;19;20262;-73
2023/06/21 04:52:57;;;;;;;9.07;4.22;;;23.60;86.20;;;;;;7378556;19;20010;-73
2023/06/21 04:55:26;;;;;;;13.07;5.00;;;23.50;86.30;;;;;;7378290;19;20007;-71
2023/06/21 04:57:55;;;;;;;11.38;3.90;;;23.60;86.30;;;;;;7378406;19;20006;-71
2023/06/21 05:00:24;;;;;;;12.00;4.95;;;23.60;86.30;;;;;;7384130;19;20297;-72
2023/06/21 05:02:52;;;;;;;14.82;4.82;;;23.60;86.30;;;;;;7405849;19;20014;-72
2023/06/21 05:05:21;;;;;;;12.43;5.47;;;23.60;86.70;;;;;;7384026;19;20007;-72
2023/06/21 05:07:52;;;;;;;11.85;5.38;;;23.60;86.90;;;;;;7384342;19;20066;-72
2023/06/21 05:10:21;;;;;;;;;;;23.70;86.90;;;;;;7384363;19;20071;-72
2023/06/21 05:12:50;;;;;;;16.58;4.95;;;23.70;86.80;;;;;;7383853;19;20159;-72
2023/06/21 05:15:18;;;;;;;11.38;4.70;;;23.70;86.80;;;;;;7406938;19;20027;-71
2023/06/21 05:17:48;;;;;;;9.48;5.03;;;23.70;87.10;;;;;;7385182;19;20073;-71
2023/06/21 05:20:17;;;;;;;9.85;4.82;;;23.70;87.20;;;;;;7383907;19;19998;-71
2023/06/21 05:22:45;;;;;;;11.88;5.07;;;23.70;87.40;;;;;;7384535;19;20002;-72
2023/06/21 05:25:17;;;;;;;10.88;5.63;;;23.70;87.50;;;;;;7384962;19;20011;-71
2023/06/21 05:27:45;;;;;;;;;;;23.70;87.40;;;;;;7387843;19;20014;-72
2023/06/21 05:30:14;;;;;;;11.40;4.97;;;23.80;87.60;;;;;;7407702;19;19915;-71
2023/06/21 05:32:43;;;;;;;11.90;5.22;;;23.80;87.70;;;;;;7387376;19;20070;-71
2023/06/21 05:35:11;;;;;;;13.48;4.93;;;23.80;87.80;;;;;;7387769;19;20295;-71
2023/06/21 05:37:40;;;;;;;11.05;5.28;;;23.90;87.80;;;;;;7383642;19;20081;-72
2023/06/21 05:40:11;;;;;;;10.90;5.30;;;23.90;88.00;;;;;;7384371;19;20615;-75
2023/06/21 05:42:42;;;;;;;;;;;24.00;88.10;;;;;;7383850;19;20023;-73
2023/06/21 05:45:12;;;;;;;11.68;5.20;;;24.00;88.00;;;;;;7405211;19;19927;-73
2023/06/21 05:47:41;;;;;;;13.13;5.25;;;24.00;88.00;;;;;;7382453;19;20007;-74
2023/06/21 05:50:10;;;;;;;12.45;5.45;;;24.00;88.20;;;;;;7382430;19;20010;-74
2023/06/21 05:52:41;;;;;;;7.57;5.28;;;24.10;88.30;;;;;;7382779;19;20009;-74
2023/06/21 05:55:10;;;;;;;9.18;5.68;;;24.10;88.50;;;;;;7383327;19;20002;-74
2023/06/21 05:57:43;;;;;;;9.40;5.55;;;24.10;88.50;;;;;;7380676;19;20027;-74
2023/06/21 06:00:13;;;;;;;14.05;5.22;;;24.10;88.50;;;;;;7404364;19;20066;-74
2023/06/21 06:02:42;;;;;;;10.77;5.00;;;24.00;89.40;;;;;;7382085;19;20098;-74
2023/06/21 06:05:12;;;;;;;8.82;5.20;;;24.00;89.70;;;;;;7382019;19;20024;-74
2023/06/21 06:07:40;;;;;;;11.75;5.38;;;24.00;89.90;;;;;;7382467;19;20272;-74
2023/06/21 06:10:10;;;;;;;11.55;5.70;;;24.00;90.00;;;;;;7380383;19;20006;-74
2023/06/21 06:12:38;;;;;;;12.18;5.43;;;24.10;90.00;;;;;;7381839;19;20230;-74
2023/06/21 06:15:11;;;;;;;7.93;6.05;;;24.20;90.10;;;;;;7403781;19;20774;-74
2023/06/21 06:17:40;;;;;;;7.93;5.15;;;24.20;90.00;;;;;;7381760;19;20019;-74
2023/06/21 06:20:10;;;;;;;7.75;5.10;;;24.30;90.00;;;;;;7383069;19;20015;-74
2023/06/21 06:22:39;;;;;;;8.48;5.78;;;24.40;90.00;;;;;;7386696;19;20012;-74
2023/06/21 06:25:09;;;;;;;13.32;5.10;;;24.40;89.70;;;;;;7386159;19;20007;-74
2023/06/21 06:27:38;;;;;;;14.60;5.38;;;24.40;89.80;;;;;;7384233;19;20006;-74
2023/06/21 06:30:11;;;;;;;13.20;5.35;;;24.50;89.70;;;;;;7403993;19;20007;-74
2023/06/21 06:32:40;;;;;;;15.85;5.72;;;24.60;89.50;;;;;;7384864;19;20018;-74
2023/06/21 06:35:10;;;;;;;8.43;4.97;;;24.60;89.20;;;;;;7385089;19;20002;-74
2023/06/21 06:37:39;;;;;;;11.07;4.93;;;24.70;89.20;;;;;;7385557;19;20031;-74
2023/06/21 06:40:09;;;;;;;11.27;5.50;;;24.70;89.50;;;;;;7385786;19;20019;-74
2023/06/21 06:42:37;;;;;;;7.75;5.07;;;24.70;89.20;;;;;;7383452;19;20020;-74
2023/06/21 06:45:07;;;;;;;12.63;5.13;;;24.70;89.10;;;;;;7403147;19;20062;-74
2023/06/21 06:47:38;;;;;;;9.88;5.13;;;24.70;88.60;;;;;;7380766;19;20011;-73
2023/06/21 06:50:07;;;;;;;;;;;24.70;88.30;;;;;;7381694;19;20003;-74
2023/06/21 06:52:36;;;;;;;9.35;5.20;;;24.70;88.80;;;;;;7380114;19;20273;-74
2023/06/21 06:55:05;;;;;;;8.57;4.60;;;24.70;88.70;;;;;;7382360;19;20018;-73
2023/06/21 06:57:36;;;;;;;16.35;5.55;;;24.70;88.90;;;;;;7380481;19;20358;-74
2023/06/21 07:00:07;;;;;;;9.00;4.75;;;24.80;88.60;;;;;;7402383;19;20031;-74
2023/06/21 07:02:39;;;;;;;8.50;5.25;;;24.90;88.40;;;;;;7379901;19;20006;-74
2023/06/21 07:05:08;;;;;;;;;;;25.00;88.30;;;;;;7380093;19;20373;-74
2023/06/21 07:07:36;;;;;;;7.10;4.75;;;25.20;88.30;;;;;;7380137;19;20207;-74
2023/06/21 07:10:05;;;;;;;13.38;5.13;;;25.20;87.60;;;;;;7380699;19;20078;-74
2023/06/21 07:12:34;;;;;;;9.65;4.60;;;25.20;87.40;;;;;;7378637;19;20016;-74
2023/06/21 07:15:02;;;;;;;9.05;4.55;;;25.30;87.30;;;;;;7399665;19;20028;-74
2023/06/21 07:17:31;;;;;;;14.07;5.00;;;25.30;86.90;;;;;;7379646;19;20292;-74
2023/06/21 07:20:04;;;;;;;10.32;4.30;;;25.30;86.60;;;;;;7379820;19;20052;-73
2023/06/21 07:22:32;;;;;;;12.23;4.32;;;25.40;86.10;;;;;;7379489;19;20303;-74
2023/06/21 07:25:01;;;;;;;9.50;4.78;;;25.40;85.90;;;;;;7378729;19;19999;-74
2023/06/21 07:27:30;;;;;;;7.03;4.05;;;25.50;85.70;;;;;;7380455;19;20062;-74
2023/06/21 07:29:59;;;;;;;7.93;4.03;;;25.50;85.50;;;;;;7403599;19;20006;-75
2023/06/21 07:32:27;;;;;;;6.90;3.70;;;25.60;85.30;;;;;;7381869;19;20007;-75
2023/06/21 07:34:57;;;;;;;6.93;4.10;;;25.60;84.90;;;;;;7383630;19;20014;-75
2023/06/21 07:37:30;;;;;;;8.05;4.38;;;25.60;84.90;;;;;;7380365;19;20448;-75
2023/06/21 07:39:59;;;;;;;11.20;3.95;;;25.60;84.30;;;;;;7380962;19;20011;-74
2023/06/21 07:42:28;;;;;;;10.48;4.20;;;25.50;83.60;;;;;;7381960;19;20006;-74
2023/06/21 07:44:56;;;;;;;10.85;4.18;;;25.30;83.50;;;;;;7402561;19;20006;-73
2023/06/21 07:47:25;;;;;;;6.47;3.97;;;25.30;83.90;;;;;;7382088;19;20007;-75
2023/06/21 07:49:54;;;;;;;10.85;4.30;;;25.40;83.80;;;;;;7381571;19;20019;-75
2023/06/21 07:52:22;;;;;;;5.05;3.67;;;25.50;83.90;;;;;;7382506;19;20006;-75
2023/06/21 07:54:54;;;;;;;8.38;4.32;;;25.50;84.00;;;;;;7384353;19;20051;-75
2023/06/21 07:57:22;;;;;;;7.03;4.10;;;25.60;83.90;;;;;;7396948;19;20003;-75
2023/06/21 07:59:51;;;;;;;9.98;4.32;;;25.70;83.40;;;;;;7401312;19;20387;-75
2023/06/21 08:02:20;;;;;;;9.52;4.18;;;25.70;83.40;;;;;;7379963;19;20002;-74
2023/06/21 08:04:49;;;;;;;6.57;4.43;;;25.70;83.40;;;;;;7380457;19;20086;-74
2023/06/21 08:07:18;;;;;;;10.55;4.60;;;25.80;83.30;;;;;;7380771;19;20006;-74
2023/06/21 08:09:47;;;;;;;5.50;3.78;;;25.80;83.20;;;;;;7379035;19;20035;-74
2023/06/21 08:12:18;;;;;;;11.00;4.40;;;25.90;82.90;;;;;;7400953;19;20050;-74
2023/06/21 08:14:47;;;;;;;15.43;6.80;;;25.90;82.70;;;;;;7378588;19;20058;-74
2023/06/21 08:17:15;;;;;;;10.75;4.68;;;25.90;82.80;;;;;;7379440;19;20027;-74
2023/06/21 08:19:47;;;;;;;12.52;7.28;;;26.00;82.80;;;;;;7382345;19;20379;-74
2023/06/21 08:22:15;;;;;;;8.95;6.75;;;26.00;82.60;;;;;;7380159;19;20007;-74
2023/06/21 08:24:44;;;;;;;7.95;4.47;;;26.10;82.50;;;;;;7380085;19;20280;-74
2023/06/21 08:27:14;;;;;;;6.90;3.83;;;26.10;81.00;;;;;;7400352;19;20017;-74
2023/06/21 08:29:47;;;;;;;8.32;4.30;;;26.10;80.80;;;;;;7377787;19;20007;-74
2023/06/21 08:32:15;;;;;;;9.45;4.40;;;26.10;80.50;;;;;;7378588;19;20041;-74
2023/06/21 08:34:44;;;;;;;8.90;4.35;;;26.10;80.70;;;;;;7384201;19;20023;-74
2023/06/21 08:37:13;;;;;;;6.80;4.20;;;26.20;80.50;;;;;;7385298;19;20503;-75
2023/06/21 08:39:41;;;;;;;9.73;4.43;;;26.20;80.50;;;;;;7386615;19;20007;-75
2023/06/21 08:42:13;;;;;;;8.25;4.10;;;26.20;80.60;;;;;;7407183;19;20375;-75
2023/06/21 08:44:45;;;;;;;9.40;4.63;;;26.30;81.20;;;;;;7384638;19;20026;-75
2023/06/21 08:47:16;;;;;;;7.50;4.45;;;26.40;79.90;;;;;;7386105;19;20013;-75
2023/06/21 08:49:46;;;;;;;;;;;26.50;79.70;;;;;;7384240;19;20240;-75
2023/06/21 08:52:20;;;;;;;8.73;4.57;;;26.60;78.80;;;;;;7384249;19;19927;-75
2023/06/21 08:54:56;;;;;;;9.35;4.28;;;26.60;78.30;;;;;;7388108;19;20027;-75
2023/06/21 08:57:27;;;;;;;8.88;3.70;;;26.70;78.50;;;;;;7385766;19;20007;-75
2023/06/21 09:00:03;;;;;;;7.80;3.60;;;26.80;78.20;;;;;;7409598;19;20477;-75
2023/06/21 09:02:52;;;;;;;6.70;3.70;;;26.80;77.90;;;;;;7383672;19;20003;-75
2023/06/21 09:05:29;;;;;;;4.78;3.58;;;26.90;77.20;;;;;;7383763;19;20014;-75
2023/06/21 09:07:59;;;;;;;10.35;3.78;;;27.00;76.50;;;;;;7384310;19;20010;-75
2023/06/21 09:10:30;;;;;;;6.43;4.03;;;27.00;76.90;;;;;;7384075;19;20020;-75
2023/06/21 09:13:01;;;;;;;6.40;3.80;;;27.10;75.70;;;;;;7381796;19;20002;-75
2023/06/21 09:15:34;;;;;;;7.63;3.97;;;27.10;76.00;;;;;;7382686;19;20265;-75
2023/06/21 09:18:04;;;;;;;8.35;4.25;;;27.10;76.00;;;;;;7405906;19;20021;-75
2023/06/21 09:20:34;;;;;;;6.88;3.50;;;27.00;75.50;;;;;;7385004;19;20481;-75
2023/06/21 09:23:03;;;;;;;6.72;3.85;;;26.90;75.50;;;;;;7383828;19;20003;-75
2023/06/21 09:25:32;;;;;;;10.85;3.55;;;26.80;75.50;;;;;;7383891;19;20113;-75
2023/06/21 09:28:01;;;;;;;6.07;3.85;;;26.80;75.90;;;;;;7384058;19;20074;-75
2023/06/21 09:30:34;;;;;;;6.63;3.57;;;26.70;75.40;;;;;;7383577;19;20009;-74
2023/06/21 09:33:02;;;;;;;7.35;4.10;;;26.70;76.60;;;;;;7403313;19;20011;-74
2023/06/21 09:35:31;;;;;;;6.65;4.38;;;26.50;76.80;;;;;;7382784;19;20054;-75
2023/06/21 09:38:00;;;;;;;8.77;4.20;;;26.50;76.70;;;;;;7382784;19;20092;-75
2023/06/21 09:40:28;;;;;;;9.15;4.20;;;26.50;76.90;;;;;;7383012;19;20397;-75
2023/06/21 09:42:57;;;;;;;13.43;4.47;;;26.60;76.80;;;;;;7383169;19;20256;-74
2023/06/21 09:45:26;;;;;;;7.85;3.78;;;26.60;77.00;;;;;;7384126;19;20007;-74
2023/06/21 09:47:57;;;;;;;9.30;3.75;;;26.60;77.30;;;;;;7407946;19;20003;-75
2023/06/21 09:50:26;;;;;;;7.55;4.00;;;26.70;77.90;;;;;;7385907;19;20019;-74
2023/06/21 09:52:55;;;;;;;10.40;4.10;;;26.70;77.30;;;;;;7382778;19;20002;-75
2023/06/21 09:55:23;;;;;;;7.15;3.63;;;26.90;76.50;;;;;;7383232;19;20019;-74
2023/06/21 09:57:57;;;;;;;7.60;3.28;;;27.00;75.90;;;;;;7380692;19;20009;-74
2023/06/21 10:00:26;;;;;;;6.28;4.07;;;27.00;76.00;;;;;;7382788;19;20032;-76
2023/06/21 10:02:58;;;;;;;6.00;3.80;;;27.10;75.60;;;;;;7408413;19;20072;-74
2023/06/21 10:05:26;;;;;;;9.60;4.18;;;27.20;75.00;;;;;;7386779;19;20027;-74
2023/06/21 10:07:55;;;;;;;14.77;4.00;;;27.30;74.30;;;;;;7385997;19;20011;-74
2023/06/21 10:10:25;;;;;;;8.57;3.42;;;27.30;73.70;;;;;;7383031;19;20070;-75
2023/06/21 10:12:55;;;;;;;5.55;3.53;;;27.40;74.50;;;;;;7383774;19;20048;-75
2023/06/21 10:15:23;;;;;;;8.88;3.50;;;27.50;74.50;;;;;;7389584;19;20046;-74
2023/06/21 10:17:53;;;;;;;8.40;3.45;;;27.40;74.30;;;;;;7404091;19;20011;-74
2023/06/21 10:20:25;;;;;;;5.53;3.53;;;27.40;72.80;;;;;;7383086;19;20010;-75
2023/06/21 10:22:55;;;;;;;13.75;3.50;;;27.50;73.40;;;;;;7383843;19;20069;-74
2023/06/21 10:25:24;;;;;;;6.18;3.92;;;27.40;73.70;;;;;;7381853;19;20108;-74
2023/06/21 10:27:55;;;;;;;10.30;3.90;;;27.40;73.00;;;;;;7381519;19;20066;-74
2023/06/21 10:30:26;;;;;;;7.20;4.10;;;27.30;73.00;;;;;;7383615;19;20020;-74
2023/06/21 10:32:57;;;;;;;5.20;3.35;;;27.30;73.70;;;;;;7401903;19;20020;-74
2023/06/21 10:35:30;;;;;;;4.63;3.60;;;27.30;74.10;;;;;;7380996;19;20249;-74
2023/06/21 10:38:06;;;;;;;7.10;3.50;;;27.40;73.20;;;;;;7381298;19;20266;-75
2023/06/21 10:40:37;;;;;;;7.75;3.22;;;27.40;72.70;;;;;;7381391;19;20248;-74
2023/06/21 10:43:07;;;;;;;6.35;3.40;;;27.50;72.20;;;;;;7381956;19;20003;-74
2023/06/21 10:45:36;;;;;;;6.43;4.03;;;27.50;71.60;;;;;;7380365;19;20036;-74
2023/06/21 10:48:07;;;;;;;6.15;3.58;;;27.50;71.90;;;;;;7400805;19;20024;-75
2023/06/21 10:50:39;;;;;;;5.03;3.60;;;27.50;71.90;;;;;;7380392;19;20062;-75
2023/06/21 10:53:11;;;;;;;3.90;2.83;;;27.60;70.80;;;;;;7378942;19;20414;-74
2023/06/21 10:55:41;;;;;;;8.40;3.25;;;27.60;71.20;;;;;;7380653;19;20006;-74
2023/06/21 10:58:13;;;;;;;5.32;3.20;;;27.70;71.60;;;;;;7380786;19;20020;-75
2023/06/21 11:00:44;;;;;;;6.72;3.05;;;27.70;70.80;;;;;;7380743;19;20002;-75
2023/06/21 11:03:15;;;;;;;4.80;3.17;;;27.80;69.30;;;;;;7400447;19;20027;-74
2023/06/21 11:05:46;;;;;;;;;;;27.90;69.20;;;;;;7380895;19;20041;-75
2023/06/21 11:08:17;;;;;;;10.13;3.17;;;27.90;69.10;;;;;;7385569;19;19970;-74
2023/06/21 11:10:47;;;;;;;6.78;3.38;;;27.90;69.60;;;;;;7384607;19;20025;-75
2023/06/21 11:13:17;;;;;;;6.53;3.17;;;28.00;70.10;;;;;;7383642;19;20015;-75
2023/06/21 11:15:48;;;;;;;4.93;3.17;;;28.10;70.00;;;;;;7381261;19;20387;-75
2023/06/21 11:18:21;;;;;;;4.78;3.20;;;28.20;68.60;;;;;;7401971;19;20011;-74
2023/06/21 11:20:54;;;;;;;7.22;3.00;;;28.20;68.60;;;;;;7379445;19;20338;-74
2023/06/21 11:23:25;;;;;;;6.32;3.42;;;28.20;68.50;;;;;;7379119;19;20007;-74
2023/06/21 11:25:58;;;;;;;4.65;3.22;;;28.20;68.40;;;;;;7378930;19;20006;-74
2023/06/21 11:28:29;;;;;;;7.10;3.35;;;28.30;68.20;;;;;;7379213;19;20010;-75
2023/06/21 11:31:09;;;;;;;8.05;3.55;;;28.30;67.70;;;;;;7378602;19;20002;-75
2023/06/21 11:33:56;;;;;;;7.35;3.03;;;28.30;67.10;;;;;;7377324;19;20044;-74
2023/06/21 11:36:31;;;;;;;4.30;2.90;;;28.30;66.10;;;;;;7377457;19;20208;-74
2023/06/21 11:39:25;;;;;;;7.53;3.38;;;28.30;66.10;;;;;;7399810;19;20042;-73
2023/06/21 11:42:02;;;;;;;5.65;3.45;;;28.30;65.90;;;;;;7378681;19;20089;-74
2023/06/21 11:44:33;;;;;;;9.07;3.83;;;28.30;66.80;;;;;;7379179;19;20006;-75
2023/06/21 11:47:20;;;;;;;5.90;4.30;;;28.30;67.00;;;;;;7378742;19;20307;-75
2023/06/21 11:50:00;;;;;;;8.40;3.33;;;28.40;66.90;;;;;;7378775;19;20378;-74
2023/06/21 11:52:37;;;;;;;10.83;4.33;;;28.50;65.80;;;;;;7379379;19;20260;-74
2023/06/21 11:55:17;;;;;;;5.18;2.88;;;28.50;66.70;;;;;;7379292;19;20241;-75
2023/06/21 11:57:47;;;;;;;3.88;2.78;;;28.60;65.80;;;;;;7377426;19;20003;-74
2023/06/21 12:00:16;;;;;;;4.55;2.88;;;28.70;64.00;;;;;;7403783;19;20024;-74
2023/06/21 12:02:45;;;;;;;8.10;3.88;;;28.70;64.60;;;;;;7381282;19;20403;-74
2023/06/21 12:05:15;;;;;;;8.00;3.30;;;28.70;65.10;;;;;;7385093;19;20066;-75
2023/06/21 12:07:47;;;;;;;4.90;3.08;;;28.70;64.70;;;;;;7378045;19;20002;-74
2023/06/21 12:10:15;;;;;;;8.23;3.10;;;28.80;64.50;;;;;;7377896;19;20370;-75
2023/06/21 12:12:46;;;;;;;5.15;3.65;;;28.90;64.00;;;;;;7379053;19;20018;-74
2023/06/21 12:15:15;;;;;;;7.47;3.10;;;28.90;63.60;;;;;;7404316;19;20056;-74
2023/06/21 12:17:44;;;;;;;10.75;3.13;;;28.90;62.80;;;;;;7381397;19;20028;-74
2023/06/21 12:20:13;;;;;;;5.47;2.90;;;28.90;62.40;;;;;;7379774;19;20010;-74
2023/06/21 12:22:42;;;;;;;3.42;2.88;;;29.00;62.60;;;;;;7378934;19;20020;-74
2023/06/21 12:25:16;;;;;;;6.15;3.20;;;29.00;62.60;;;;;;7379420;19;20019;-74
2023/06/21 12:27:54;;;;;;;4.03;2.67;;;29.10;62.70;;;;;;7378503;19;20721;-75
2023/06/21 12:30:25;;;;;;;4.22;2.83;;;29.10;61.50;;;;;;7392109;19;20032;-75
2023/06/21 12:32:54;;;;;;;15.50;3.30;;;29.10;61.60;;;;;;7399005;19;20031;-75
2023/06/21 12:35:22;;;;;;;5.35;3.00;;;29.10;61.40;;;;;;7377579;19;20003;-75
2023/06/21 12:37:53;;;;;;;9.30;3.10;;;29.20;61.80;;;;;;7378546;19;20010;-75
2023/06/21 12:40:24;;;;;;;6.10;2.50;;;29.30;61.10;;;;;;7383973;19;20009;-74
2023/06/21 12:42:54;;;;;;;3.72;3.03;;;29.50;62.20;;;;;;7379924;19;20020;-74
2023/06/21 12:45:23;;;;;;;8.18;3.30;;;29.60;60.80;;;;;;7392492;19;20010;-75
2023/06/21 12:47:54;;;;;;;4.53;3.67;;;29.60;60.80;;;;;;7397299;19;20227;-74
2023/06/21 12:50:23;;;;;;;5.00;3.03;;;29.60;61.30;;;;;;7377771;19;20007;-75
2023/06/21 12:53:01;;;;;;;7.18;4.13;;;29.70;60.70;;;;;;7377630;19;20007;-75
2023/06/21 12:55:32;;;;;;;5.90;3.28;;;29.80;61.80;;;;;;7377523;19;20287;-74
2023/06/21 12:58:01;;;;;;;4.75;2.95;;;29.80;60.50;;;;;;7377514;19;20020;-74
2023/06/21 13:00:30;;;;;;;6.10;3.03;;;29.90;60.30;;;;;;7378462;19;20021;-74
2023/06/21 13:02:58;;;;;;;3.83;2.92;;;29.90;61.10;;;;;;7398142;19;20003;-75
2023/06/21 13:05:27;;;;;;;5.03;2.88;;;30.00;60.20;;;;;;7377024;19;20082;-75